Time;durP1;ratioP1;P1;durP2;ratioP2;P2;SDS_P1;SDS_P2;PMS_P1;PMS_P2;Temp;Humidity;BMP_temperature;BMP_pressure;BME280_temperature;BME280_humidity;BME280_pressure;Samples;Min_cycle;Max_cycle;Signal;HPM_P1;HPM_P2
2021/08/23 00:00:52;;;;;;;8.00;3.33;;;;;;;12.71;76.62;99263.38;4754007;30;20048;-64
2021/08/23 00:03:18;;;;;;;7.45;3.75;;;;;;;12.72;76.78;99270.28;4754132;30;20048;-64
2021/08/23 00:05:43;;;;;;;5.63;4.13;;;;;;;12.71;76.68;99267.91;4753653;30;20063;-66
2021/08/23 00:08:09;;;;;;;8.18;4.00;;;;;;;12.67;76.86;99264.13;4753392;30;20067;-64
2021/08/23 00:10:35;;;;;;;5.65;4.03;;;;;;;12.61;76.75;99262.47;4737834;30;20056;-65
2021/08/23 00:13:00;;;;;;;6.35;3.72;;;;;;;12.62;76.72;99267.56;4753869;30;20051;-64
2021/08/23 00:15:26;;;;;;;4.75;3.40;;;;;;;12.57;77.31;99270.16;4753531;30;20154;-65
2021/08/23 00:17:52;;;;;;;5.85;3.13;;;;;;;12.57;77.16;99270.16;4753850;30;20183;-65
2021/08/23 00:20:21;;;;;;;5.40;3.72;;;;;;;12.55;76.89;99268.81;4753438;30;20051;-65
2021/08/23 00:22:48;;;;;;;10.52;3.72;;;;;;;12.53;76.67;99271.75;4753672;30;20518;-63
2021/08/23 00:25:18;;;;;;;5.72;3.75;;;;;;;12.49;76.77;99263.44;4737834;30;20048;-64
2021/08/23 00:27:44;;;;;;;5.68;3.50;;;;;;;12.49;76.83;99267.97;4737571;30;20044;-64
2021/08/23 00:30:11;;;;;;;5.30;3.63;;;;;;;12.48;76.69;99271.69;4737544;30;20060;-65
2021/08/23 00:32:37;;;;;;;7.93;3.90;;;;;;;12.45;77.09;99273.00;4753571;30;20052;-64
2021/08/23 00:35:03;;;;;;;6.03;3.33;;;;;;;12.43;76.87;99277.75;4753154;30;20048;-64
2021/08/23 00:37:29;;;;;;;3.90;2.80;;;;;;;12.38;76.83;99266.25;4752774;30;20048;-64
2021/08/23 00:39:55;;;;;;;4.53;3.17;;;;;;;12.42;77.05;99272.69;4737539;30;20200;-65
2021/08/23 00:42:20;;;;;;;4.82;3.30;;;;;;;12.36;76.88;99271.03;4753268;30;20052;-63
2021/08/23 00:44:46;;;;;;;6.82;3.00;;;;;;;12.41;76.67;99274.56;4737163;30;20154;-65
2021/08/23 00:47:12;;;;;;;7.20;3.10;;;;;;;12.39;76.18;99279.31;4753201;30;20083;-63
2021/08/23 00:49:39;;;;;;;8.25;3.47;;;;;;;12.36;76.62;99282.47;4753096;30;20056;-64
2021/08/23 00:52:06;;;;;;;6.13;3.35;;;;;;;12.38;76.86;99288.34;4751655;30;20044;-64
2021/08/23 00:54:33;;;;;;;5.20;3.60;;;;;;;12.38;76.51;99290.19;4737098;30;20059;-64
2021/08/23 00:56:59;;;;;;;3.33;2.50;;;;;;;12.39;76.21;99281.97;4752847;30;20131;-64
2021/08/23 00:59:26;;;;;;;3.95;2.90;;;;;;;12.40;76.27;99283.56;4752789;30;20197;-64
2021/08/23 01:02:01;;;;;;;3.08;2.63;;;;;;;12.42;76.50;99285.97;4751608;30;20079;-64
2021/08/23 01:04:36;;;;;;;4.07;2.70;;;;;;;12.42;76.01;99286.78;4752803;30;20055;-63
2021/08/23 01:07:07;;;;;;;3.15;2.75;;;;;;;12.40;76.11;99291.53;4736813;30;20064;-65
2021/08/23 01:09:36;;;;;;;5.18;2.67;;;;;;;12.42;75.69;99293.97;4752660;30;20105;-64
2021/08/23 01:12:04;;;;;;;4.97;2.60;;;;;;;12.43;75.54;99299.00;4736659;30;20052;-64
2021/08/23 01:14:30;;;;;;;4.25;2.55;;;;;;;12.42;75.70;99297.41;4737023;30;20063;-64
2021/08/23 01:16:55;;;;;;;6.22;2.80;;;;;;;12.42;75.68;99296.63;4752615;30;20044;-63
2021/08/23 01:19:22;;;;;;;6.57;2.60;;;;;;;12.41;75.66;99302.97;4736623;30;20142;-65
2021/08/23 01:21:51;;;;;;;4.57;2.85;;;;;;;12.39;76.26;99302.44;4752638;30;20048;-64
2021/08/23 01:24:17;;;;;;;6.40;2.63;;;;;;;12.37;75.98;99301.88;4736756;30;20056;-64
2021/08/23 01:26:47;;;;;;;9.30;3.10;;;;;;;12.30;76.23;99299.44;4736545;30;20048;-63
2021/08/23 01:29:52;;;;;;;3.75;2.53;;;;;;;12.32;76.50;99305.28;4736608;30;20066;-64
2021/08/23 01:32:21;;;;;;;5.68;3.53;;;;;;;12.31;76.34;99305.53;4736565;30;20063;-64
2021/08/23 01:34:49;;;;;;;4.63;2.70;;;;;;;12.31;76.33;99308.19;4752499;30;20052;-64
2021/08/23 01:37:19;;;;;;;4.72;2.70;;;;;;;12.31;76.20;99310.84;4736318;30;20059;-64
2021/08/23 01:39:45;;;;;;;5.05;3.05;;;;;;;12.29;76.37;99313.75;4752426;30;20113;-64
2021/08/23 01:42:11;;;;;;;3.78;2.90;;;;;;;12.25;76.45;99310.00;4752235;30;20411;-64
2021/08/23 01:44:37;;;;;;;5.28;2.95;;;;;;;12.23;76.30;99318.22;4736275;30;20055;-65
2021/08/23 01:47:03;;;;;;;5.93;2.80;;;;;;;12.21;76.59;99314.22;4752274;30;20048;-63
2021/08/23 01:49:30;;;;;;;5.93;3.15;;;;;;;12.17;76.24;99319.22;4751101;30;20063;-64
2021/08/23 01:51:56;;;;;;;5.20;3.33;;;;;;;12.17;76.32;99316.53;4752154;30;20048;-63
2021/08/23 01:54:26;;;;;;;4.45;3.28;;;;;;;12.18;76.29;99320.84;4751998;30;20072;-64
2021/08/23 01:56:52;;;;;;;4.00;2.95;;;;;;;12.15;76.82;99317.88;4751987;30;20469;-64
2021/08/23 01:59:18;;;;;;;5.47;2.97;;;;;;;12.11;76.69;99324.72;4721383;30;20059;-64
2021/08/23 02:01:43;;;;;;;4.90;3.15;;;;;;;12.07;76.43;99321.75;4751830;30;20055;-63
2021/08/23 02:04:09;;;;;;;7.13;3.58;;;;;;;12.04;76.63;99322.25;4751698;30;20091;-64
2021/08/23 02:06:35;;;;;;;3.67;2.83;;;;;;;12.03;76.65;99325.97;4751671;30;20064;-64
2021/08/23 02:09:00;;;;;;;3.63;2.83;;;;;;;11.99;77.13;99319.53;4750793;30;20059;-63
2021/08/23 02:11:26;;;;;;;5.65;3.50;;;;;;;11.95;76.82;99318.44;4752141;30;20499;-64
2021/08/23 02:13:53;;;;;;;6.72;3.35;;;;;;;11.89;77.21;99322.88;4751432;30;20222;-63
2021/08/23 02:16:19;;;;;;;5.05;3.30;;;;;;;11.87;77.11;99324.19;4751516;30;20044;-63
2021/08/23 02:18:45;;;;;;;4.78;3.58;;;;;;;11.84;77.08;99322.78;4751405;30;20138;-64
2021/08/23 02:21:11;;;;;;;4.30;3.38;;;;;;;11.87;76.89;99324.97;4734249;30;20044;-63
2021/08/23 02:23:37;;;;;;;7.10;3.83;;;;;;;11.86;77.16;99326.03;4719509;30;20052;-65
2021/08/23 02:26:03;;;;;;;9.90;4.72;;;;;;;11.84;77.39;99330.75;4748852;30;20238;-63
2021/08/23 02:28:28;;;;;;;5.35;3.75;;;;;;;11.85;77.50;99326.25;4750024;30;20098;-64
2021/08/23 02:30:54;;;;;;;4.95;3.33;;;;;;;11.89;76.72;99344.13;4751215;30;20040;-63
2021/08/23 02:33:20;;;;;;;9.10;3.47;;;;;;;11.91;76.96;99336.72;4750802;30;20569;-62
2021/08/23 02:35:46;;;;;;;8.07;3.47;;;;;;;11.91;76.75;99342.03;4751373;30;20102;-63
2021/08/23 02:38:12;;;;;;;5.20;3.13;;;;;;;11.99;76.64;99338.13;4735193;30;20052;-62
2021/08/23 02:40:38;;;;;;;5.75;3.33;;;;;;;12.14;75.98;99342.81;4735064;30;20441;-64
2021/08/23 02:43:03;;;;;;;4.32;3.05;;;;;;;12.43;74.83;99340.75;4751104;30;20048;-63
2021/08/23 02:45:29;;;;;;;6.05;3.17;;;;;;;12.76;73.72;99342.38;4751144;30;20044;-63
2021/08/23 02:47:55;;;;;;;6.13;3.72;;;;;;;13.04;72.66;99343.97;4734577;30;20496;-63
2021/08/23 02:50:21;;;;;;;4.55;3.08;;;;;;;13.35;71.22;99344.19;4734972;30;20131;-64
2021/08/23 02:52:47;;;;;;;4.90;3.20;;;;;;;13.60;70.43;99346.22;4750891;30;20058;-64
2021/08/23 02:55:13;;;;;;;9.40;3.45;;;;;;;13.82;69.42;99346.06;4720119;30;20048;-63
2021/08/23 02:57:39;;;;;;;5.10;3.05;;;;;;;14.07;68.54;99348.84;4734860;30;20430;-62
2021/08/23 03:00:06;;;;;;;6.93;3.47;;;;;;;14.37;67.40;99341.19;4720153;30;20059;-64
2021/08/23 03:02:32;;;;;;;8.23;3.17;;;;;;;14.60;66.19;99337.28;4751268;30;20082;-64
2021/08/23 03:04:58;;;;;;;5.95;3.13;;;;;;;14.83;65.42;99333.31;4751131;30;20121;-64
2021/08/23 03:07:24;;;;;;;5.22;3.33;;;;;;;15.06;64.71;99339.94;4750662;30;20526;-64
2021/08/23 03:09:51;;;;;;;8.20;3.05;;;;;;;15.20;63.57;99341.00;4750612;30;20438;-64
2021/08/23 03:12:17;;;;;;;5.47;3.10;;;;;;;15.37;62.96;99341.53;4751040;30;20044;-63
2021/08/23 03:14:43;;;;;;;9.20;3.10;;;;;;;15.48;63.70;99344.19;4751033;30;20497;-65
2021/08/23 03:17:08;;;;;;;11.30;3.60;;;;;;;15.67;62.52;99340.69;4750742;30;20082;-64
2021/08/23 03:19:34;;;;;;;8.95;3.72;;;;;;;15.79;62.44;99344.94;4720510;30;20052;-64
2021/08/23 03:22:00;;;;;;;6.88;4.22;;;;;;;15.96;61.62;99344.59;4750756;30;20052;-63
2021/08/23 03:24:25;;;;;;;5.80;3.75;;;;;;;16.15;61.18;99352.81;4750654;30;20062;-62
2021/08/23 03:26:51;;;;;;;5.13;3.80;;;;;;;16.29;60.89;99346.56;4734602;30;20071;-64
2021/08/23 03:29:17;;;;;;;6.47;3.72;;;;;;;16.30;60.68;99347.41;4734651;30;20478;-64
2021/08/23 03:31:43;;;;;;;8.82;4.10;;;;;;;16.47;60.33;99358.53;4750831;30;20059;-63
2021/08/23 03:34:12;;;;;;;6.43;3.75;;;;;;;16.56;60.05;99354.19;4720149;30;20052;-65
2021/08/23 03:36:40;;;;;;;6.90;3.90;;;;;;;16.72;59.32;99359.44;4750774;30;20048;-64
2021/08/23 03:39:07;;;;;;;7.35;3.35;;;;;;;16.85;58.78;99350.78;4750734;30;20306;-65
2021/08/23 03:41:34;;;;;;;5.20;3.40;;;;;;;16.95;58.78;99353.41;4749235;30;20048;-64
2021/08/23 03:44:00;;;;;;;4.55;3.45;;;;;;;17.03;58.79;99357.38;4750272;30;20048;-65
2021/08/23 03:46:27;;;;;;;5.13;3.47;;;;;;;17.11;58.10;99353.28;4734617;30;20533;-65
2021/08/23 03:48:54;;;;;;;10.75;4.20;;;;;;;17.26;57.59;99355.81;4750512;30;20052;-65
2021/08/23 03:51:20;;;;;;;6.63;3.75;;;;;;;17.35;57.44;99367.50;4749107;30;20462;-64
2021/08/23 03:53:46;;;;;;;7.38;4.25;;;;;;;17.41;57.02;99354.88;4750453;30;20207;-65
2021/08/23 03:56:12;;;;;;;11.65;4.95;;;;;;;17.57;56.61;99358.22;4750312;30;20048;-64
2021/08/23 03:58:38;;;;;;;7.55;4.50;;;;;;;17.70;56.34;99366.34;4750515;30;20475;-65
2021/08/23 04:01:03;;;;;;;11.88;4.40;;;;;;;17.79;55.79;99369.25;4734474;30;20048;-64
2021/08/23 04:03:30;;;;;;;10.00;4.28;;;;;;;17.95;55.17;99371.78;4750277;30;20045;-64
2021/08/23 04:05:56;;;;;;;6.10;4.53;;;;;;;18.00;55.71;99377.06;4734563;30;20091;-64
2021/08/23 04:08:22;;;;;;;6.97;4.57;;;;;;;17.99;55.74;99368.22;4731202;30;20069;-64
2021/08/23 04:10:47;;;;;;;8.05;4.60;;;;;;;18.10;55.39;99363.53;4746107;30;20054;-65
2021/08/23 04:13:14;;;;;;;6.72;4.15;;;;;;;18.24;54.81;99361.75;4734515;30;20102;-64
2021/08/23 04:15:39;;;;;;;9.38;4.60;;;;;;;18.38;54.36;99356.44;4736088;30;20064;-66
2021/08/23 04:18:05;;;;;;;5.03;3.70;;;;;;;18.36;54.13;99367.47;4735638;30;20044;-65
2021/08/23 04:20:31;;;;;;;6.20;3.95;;;;;;;18.54;53.81;99373.16;4735977;30;20057;-66
2021/08/23 04:22:56;;;;;;;6.70;3.72;;;;;;;18.65;52.93;99365.72;4736003;30;20052;-64
2021/08/23 04:25:22;;;;;;;9.40;3.72;;;;;;;18.81;52.38;99367.13;4735509;30;20130;-65
2021/08/23 04:27:48;;;;;;;9.02;4.18;;;;;;;18.92;52.59;99368.59;4735616;30;20060;-64
2021/08/23 04:30:13;;;;;;;7.57;3.80;;;;;;;19.01;51.74;99374.09;4734137;30;20464;-66
2021/08/23 04:32:39;;;;;;;4.78;3.75;;;;;;;19.13;51.72;99368.25;4735819;30;20055;-65
2021/08/23 04:35:05;;;;;;;6.00;3.90;;;;;;;19.25;51.48;99369.38;4735524;30;20052;-65
2021/08/23 04:37:31;;;;;;;8.02;4.30;;;;;;;19.23;51.58;99365.38;4735664;30;20052;-63
2021/08/23 04:39:56;;;;;;;6.03;3.60;;;;;;;19.15;51.52;99366.06;4735351;30;20053;-66
2021/08/23 04:42:22;;;;;;;6.53;3.67;;;;;;;19.11;51.56;99365.84;4735193;30;20121;-65
2021/08/23 04:44:48;;;;;;;4.18;3.45;;;;;;;19.09;51.66;99369.91;4735219;30;20561;-64
2021/08/23 04:47:13;;;;;;;8.80;4.38;;;;;;;19.02;51.29;99370.31;4735387;30;20049;-63
2021/08/23 04:49:39;;;;;;;6.00;3.13;;;;;;;18.98;51.42;99375.47;4735370;30;20060;-65
2021/08/23 04:52:05;;;;;;;4.50;3.25;;;;;;;18.94;51.84;99371.78;4735442;30;20424;-62
2021/08/23 04:54:31;;;;;;;5.13;3.95;;;;;;;18.78;51.67;99371.19;4733818;30;20049;-64
2021/08/23 04:56:56;;;;;;;6.85;3.70;;;;;;;18.63;52.32;99365.25;4734000;30;20068;-63
2021/08/23 04:59:22;;;;;;;5.40;3.60;;;;;;;18.61;52.53;99373.56;4733882;30;20579;-66
2021/08/23 05:01:48;;;;;;;6.28;3.85;;;;;;;18.54;52.73;99378.53;4735245;30;20139;-65
2021/08/23 05:04:14;;;;;;;7.70;4.38;;;;;;;18.45;53.34;99374.91;4735006;30;20500;-65
2021/08/23 05:06:39;;;;;;;5.88;3.72;;;;;;;18.33;54.06;99378.00;4736486;30;20145;-64
2021/08/23 05:09:05;;;;;;;8.25;3.75;;;;;;;18.23;54.42;99383.47;4752530;30;20052;-63
2021/08/23 05:11:31;;;;;;;5.53;3.75;;;;;;;18.11;54.43;99387.38;4752461;30;20511;-63
2021/08/23 05:13:57;;;;;;;5.30;3.60;;;;;;;17.93;55.04;99380.88;4736319;30;20479;-69
2021/08/23 05:16:22;;;;;;;5.18;3.42;;;;;;;17.87;54.93;99384.72;4736354;30;20055;-63
2021/08/23 05:18:48;;;;;;;5.40;3.08;;;;;;;17.80;54.78;99386.16;4736344;30;20083;-63
2021/08/23 05:21:14;;;;;;;7.30;3.20;;;;;;;17.80;55.26;99396.88;4751012;30;20085;-62
2021/08/23 05:23:39;;;;;;;6.35;3.45;;;;;;;17.73;55.46;99396.38;4752306;30;20127;-63
2021/08/23 05:26:06;;;;;;;8.07;3.45;;;;;;;17.69;55.87;99396.16;4735687;30;20522;-62
2021/08/23 05:28:32;;;;;;;6.03;2.90;;;;;;;17.69;56.31;99394.25;4748133;30;20056;-62
2021/08/23 05:30:58;;;;;;;4.32;2.88;;;;;;;17.68;55.99;99400.72;4751290;30;20059;-62
2021/08/23 05:33:23;;;;;;;6.93;2.72;;;;;;;17.69;55.52;99391.56;4736395;30;20044;-63
2021/08/23 05:35:49;;;;;;;4.15;2.75;;;;;;;17.70;55.30;99389.69;4752410;30;20448;-60
2021/08/23 05:38:16;;;;;;;4.65;2.65;;;;;;;17.67;55.21;99388.38;4751264;30;20610;-63
2021/08/23 05:40:42;;;;;;;4.07;2.10;;;;;;;17.66;55.98;99397.50;4751985;30;20190;-63
2021/08/23 05:43:08;;;;;;;4.10;2.30;;;;;;;17.67;56.00;99395.63;4736051;30;20044;-64
2021/08/23 05:45:33;;;;;;;4.78;2.42;;;;;;;17.71;55.88;99394.78;4751990;30;20135;-65
2021/08/23 05:47:59;;;;;;;5.00;2.45;;;;;;;17.75;56.35;99399.56;4752119;30;20048;-62
2021/08/23 05:50:25;;;;;;;4.93;2.30;;;;;;;17.80;55.90;99388.84;4751697;30;20072;-64
2021/08/23 05:52:51;;;;;;;7.07;2.35;;;;;;;17.83;55.21;99390.94;4750452;30;20044;-64
2021/08/23 05:55:17;;;;;;;3.75;2.40;;;;;;;17.85;54.73;99394.94;4751525;30;20063;-63
2021/08/23 05:57:42;;;;;;;3.22;2.22;;;;;;;17.84;54.98;99401.38;4751730;30;20040;-63
2021/08/23 06:00:09;;;;;;;4.43;2.38;;;;;;;17.87;55.46;99400.00;4751468;30;20195;-64
2021/08/23 06:02:38;;;;;;;6.40;2.17;;;;;;;17.95;55.52;99398.59;4750276;30;20063;-64
2021/08/23 06:05:04;;;;;;;4.32;2.30;;;;;;;17.99;55.33;99404.97;4751293;30;20159;-63
2021/08/23 06:07:30;;;;;;;6.20;2.05;;;;;;;18.01;55.22;99406.28;4735257;30;20070;-64
2021/08/23 06:09:56;;;;;;;4.25;1.88;;;;;;;18.04;55.25;99403.03;4735407;30;20059;-65
2021/08/23 06:12:21;;;;;;;2.38;1.80;;;;;;;18.04;55.50;99404.91;4735477;30;20130;-62
2021/08/23 06:14:48;;;;;;;3.92;2.30;;;;;;;18.10;55.46;99404.56;4747685;30;20067;-63
2021/08/23 06:17:14;;;;;;;7.20;2.40;;;;;;;18.14;55.75;99404.78;4748092;30;20048;-65
2021/08/23 06:19:40;;;;;;;4.55;2.40;;;;;;;18.14;55.34;99400.22;4748232;30;20597;-62
2021/08/23 06:22:05;;;;;;;4.25;2.20;;;;;;;18.19;55.50;99399.38;4747693;30;20056;-64
2021/08/23 06:24:31;;;;;;;4.05;2.00;;;;;;;18.25;54.74;99405.47;4747922;30;20060;-64
2021/08/23 06:26:57;;;;;;;3.15;1.83;;;;;;;18.25;54.66;99400.91;4731682;30;20460;-63
2021/08/23 06:29:22;;;;;;;7.05;2.35;;;;;;;18.22;54.86;99396.09;4749301;30;20435;-64
2021/08/23 06:31:48;;;;;;;6.15;2.25;;;;;;;18.30;53.93;99395.47;4746886;30;20521;-63
2021/08/23 06:34:14;;;;;;;6.72;2.42;;;;;;;18.37;54.55;99403.16;4744457;30;20082;-63
2021/08/23 06:36:42;;;;;;;2.30;1.70;;;;;;;18.40;54.01;99399.91;4745555;30;20048;-63
2021/08/23 06:39:07;;;;;;;3.67;2.22;;;;;;;18.45;54.21;99401.72;4747719;30;20135;-63
2021/08/23 06:41:33;;;;;;;2.65;2.00;;;;;;;18.49;53.88;99402.75;4729831;30;20650;-64
2021/08/23 06:43:59;;;;;;;2.35;2.00;;;;;;;18.49;53.18;99402.75;4746305;30;20052;-63
2021/08/23 06:46:24;;;;;;;3.35;1.90;;;;;;;18.49;52.84;99400.84;4745348;30;20135;-64
2021/08/23 06:48:51;;;;;;;5.20;2.10;;;;;;;18.63;53.06;99402.84;4730954;30;20109;-63
2021/08/23 06:51:20;;;;;;;2.67;1.75;;;;;;;18.71;52.42;99404.88;4731588;30;20044;-66
2021/08/23 06:53:47;;;;;;;2.15;1.70;;;;;;;18.78;51.48;99406.13;4746209;30;20044;-64
2021/08/23 06:56:12;;;;;;;4.85;1.95;;;;;;;18.85;51.49;99400.38;4744292;30;20044;-63
2021/08/23 06:58:38;;;;;;;3.25;1.92;;;;;;;18.93;49.96;99406.97;4745986;30;20052;-65
2021/08/23 07:01:04;;;;;;;2.80;1.60;;;;;;;19.03;50.11;99399.56;4729813;30;20059;-63
2021/08/23 07:03:29;;;;;;;1.80;1.48;;;;;;;19.16;49.30;99405.28;4729124;30;20067;-64
2021/08/23 07:05:55;;;;;;;3.45;1.77;;;;;;;19.25;49.27;99414.25;4747744;30;20533;-65
2021/08/23 07:08:21;;;;;;;1.70;1.52;;;;;;;19.38;49.00;99404.63;4760540;30;20430;-62
2021/08/23 07:10:48;;;;;;;2.42;1.88;;;;;;;19.57;48.27;99399.22;4746310;30;20638;-64
2021/08/23 07:13:13;;;;;;;2.83;1.83;;;;;;;19.56;48.33;99401.13;4729368;30;20084;-62
2021/08/23 07:15:39;;;;;;;3.63;1.50;;;;;;;19.63;46.92;99398.03;4747240;30;20559;-63
2021/08/23 07:18:05;;;;;;;5.00;1.75;;;;;;;19.77;47.61;99396.19;4747355;30;20181;-62
2021/08/23 07:20:30;;;;;;;5.00;1.67;;;;;;;19.65;48.26;99395.88;4745339;30;20121;-64
2021/08/23 07:22:56;;;;;;;3.50;1.65;;;;;;;19.91;47.66;99399.69;4747689;30;20052;-62
2021/08/23 07:25:22;;;;;;;2.47;1.73;;;;;;;20.00;46.48;99393.56;4745908;30;20571;-65
2021/08/23 07:27:47;;;;;;;3.30;1.77;;;;;;;20.17;46.03;99391.88;4749270;30;20418;-63
2021/08/23 07:30:14;;;;;;;3.17;1.80;;;;;;;20.32;46.20;99398.03;4731863;30;20145;-64
2021/08/23 07:32:40;;;;;;;4.60;1.63;;;;;;;20.37;45.80;99392.56;4760249;30;20048;-63
2021/08/23 07:35:07;;;;;;;1.30;1.20;;;;;;;20.30;45.42;99387.59;4748577;30;20109;-63
2021/08/23 07:37:37;;;;;;;1.77;1.38;;;;;;;20.33;45.01;99389.69;4748553;30;20056;-64
2021/08/23 07:40:03;;;;;;;1.80;1.40;;;;;;;20.33;43.58;99388.88;4746715;30;20144;-64
2021/08/23 07:42:29;;;;;;;3.08;1.38;;;;;;;20.30;44.08;99395.66;4730112;30;20064;-64
2021/08/23 07:44:55;;;;;;;3.38;1.60;;;;;;;20.40;44.29;99392.75;4748430;30;20056;-65
2021/08/23 07:47:20;;;;;;;3.83;1.50;;;;;;;20.36;44.28;99396.34;4751423;30;20439;-62
2021/08/23 07:49:46;;;;;;;1.35;1.25;;;;;;;20.37;44.06;99396.03;4751011;30;20062;-64
2021/08/23 07:52:12;;;;;;;5.80;1.40;;;;;;;20.21;44.38;99392.09;4751534;30;20044;-63
2021/08/23 07:54:37;;;;;;;1.83;1.27;;;;;;;20.19;43.93;99389.69;4750985;30;20052;-62
2021/08/23 07:57:05;;;;;;;2.53;1.20;;;;;;;20.14;44.04;99389.78;4751068;30;20071;-61
2021/08/23 07:59:30;;;;;;;5.18;1.40;;;;;;;20.24;44.76;99393.38;4751547;30;20141;-62
2021/08/23 08:01:57;;;;;;;2.95;1.45;;;;;;;20.38;44.41;99383.38;4750204;30;20056;-63
2021/08/23 08:04:23;;;;;;;2.17;1.23;;;;;;;20.63;43.06;99390.13;4750619;30;20052;-62
2021/08/23 08:06:49;;;;;;;4.57;1.20;;;;;;;20.87;42.68;99381.78;4751258;30;20075;-63
2021/08/23 08:09:15;;;;;;;2.10;1.40;;;;;;;21.02;42.25;99386.00;4750770;30;20056;-64
2021/08/23 08:11:41;;;;;;;1.92;1.30;;;;;;;21.06;42.50;99387.78;4735400;30;20097;-61
2021/08/23 08:14:06;;;;;;;3.03;1.13;;;;;;;21.02;41.44;99394.06;4751272;30;20698;-62
2021/08/23 08:16:32;;;;;;;1.52;1.40;;;;;;;20.91;42.30;99396.22;4749844;30;20052;-61
2021/08/23 08:18:58;;;;;;;3.08;1.30;;;;;;;20.89;42.66;99389.56;4752268;30;20472;-63
2021/08/23 08:21:24;;;;;;;1.50;1.17;;;;;;;20.87;42.24;99384.47;4734816;30;20090;-63
2021/08/23 08:23:53;;;;;;;1.23;1.13;;;;;;;20.78;42.47;99381.69;4747764;30;20059;-63
2021/08/23 08:26:23;;;;;;;1.60;1.20;;;;;;;20.81;42.02;99383.00;4733776;30;20483;-62
2021/08/23 08:28:49;;;;;;;2.83;1.48;;;;;;;20.79;42.13;99377.91;4750689;30;20113;-62
2021/08/23 08:31:15;;;;;;;1.30;1.20;;;;;;;20.73;41.59;99373.72;4750166;30;20151;-62
2021/08/23 08:33:40;;;;;;;2.35;1.23;;;;;;;20.72;41.65;99380.22;4750606;30;20210;-63
2021/08/23 08:36:06;;;;;;;9.35;1.40;;;;;;;20.74;40.42;99375.34;4747985;30;20307;-62
2021/08/23 08:38:32;;;;;;;2.38;1.40;;;;;;;20.71;41.17;99378.66;4750232;30;20076;-62
2021/08/23 08:40:59;;;;;;;3.40;1.30;;;;;;;20.52;41.39;99386.03;4735734;30;20533;-61
2021/08/23 08:43:26;;;;;;;2.03;1.20;;;;;;;20.50;41.87;99383.66;4746083;30;20834;-63
2021/08/23 08:45:53;;;;;;;3.85;1.17;;;;;;;20.57;41.92;99377.88;4739389;30;20150;-65
2021/08/23 08:48:19;;;;;;;3.13;1.13;;;;;;;20.61;41.71;99384.25;4747443;30;20105;-65
2021/08/23 08:50:45;;;;;;;3.92;1.33;;;;;;;20.74;41.49;99379.94;4729867;30;20049;-65
2021/08/23 08:53:11;;;;;;;6.25;1.10;;;;;;;20.83;41.30;99381.59;4747413;30;20119;-64
2021/08/23 08:55:37;;;;;;;2.35;1.40;;;;;;;20.82;41.89;99384.56;4743817;30;20498;-64
2021/08/23 08:58:06;;;;;;;1.40;1.30;;;;;;;20.67;41.95;99391.13;4746404;30;20044;-64
2021/08/23 09:00:34;;;;;;;2.30;1.20;;;;;;;20.60;42.03;99388.06;4746265;30;20139;-64
2021/08/23 09:03:00;;;;;;;2.60;1.50;;;;;;;20.79;41.75;99387.88;4730835;30;20044;-65
2021/08/23 09:05:42;;;;;;;5.32;3.35;;;;;;;20.93;41.01;99385.13;4748819;30;20419;-63
2021/08/23 09:08:08;;;;;;;1.98;1.42;;;;;;;21.01;41.25;99382.50;4745794;30;20124;-64
2021/08/23 09:10:39;;;;;;;2.45;1.30;;;;;;;21.09;41.16;99384.47;4748884;30;20052;-65
2021/08/23 09:13:10;;;;;;;4.63;1.35;;;;;;;21.27;41.23;99381.88;4730320;30;20519;-64
2021/08/23 09:15:39;;;;;;;1.52;1.33;;;;;;;21.30;40.68;99383.97;4745847;30;20052;-64
2021/08/23 09:18:07;;;;;;;1.83;1.38;;;;;;;21.37;40.03;99383.56;4720162;30;20098;-64
2021/08/23 09:20:35;;;;;;;4.45;1.20;;;;;;;21.45;40.26;99372.03;4748882;30;20059;-64
2021/08/23 09:23:12;;;;;;;1.63;1.15;;;;;;;21.52;39.11;99381.25;4749284;30;20511;-63
2021/08/23 09:25:39;;;;;;;5.25;1.48;;;;;;;21.54;39.79;99383.66;4747976;30;20090;-63
2021/08/23 09:28:06;;;;;;;3.50;1.13;;;;;;;21.59;38.39;99386.22;4748747;30;20047;-63
2021/08/23 09:30:32;;;;;;;3.03;1.10;;;;;;;21.72;38.20;99387.22;4748725;30;20114;-64
2021/08/23 09:33:01;;;;;;;2.80;1.27;;;;;;;21.86;38.67;99382.50;4748384;30;20052;-64
2021/08/23 09:35:36;;;;;;;2.95;1.40;;;;;;;22.03;37.58;99384.47;4747929;30;20056;-64
2021/08/23 09:38:10;;;;;;;4.75;2.17;;;;;;;22.13;37.56;99381.47;4749520;30;20052;-65
2021/08/23 09:40:36;;;;;;;3.85;1.40;;;;;;;22.28;37.83;99385.66;4748516;30;20051;-65
2021/08/23 09:43:16;;;;;;;2.40;1.73;;;;;;;22.41;37.85;99381.22;4734283;30;20101;-65
2021/08/23 09:46:01;;;;;;;4.80;1.48;;;;;;;22.56;37.29;99374.56;4748354;30;20052;-65
2021/08/23 09:48:28;;;;;;;4.45;1.60;;;;;;;22.63;37.15;99374.91;4747126;30;20450;-64
2021/08/23 09:50:54;;;;;;;4.18;1.20;;;;;;;22.61;35.91;99380.59;4746997;30;20052;-65
2021/08/23 09:53:20;;;;;;;1.48;1.30;;;;;;;22.49;36.97;99379.66;4745665;30;20044;-64
2021/08/23 09:55:48;;;;;;;6.53;1.58;;;;;;;22.34;37.23;99380.91;4747961;30;20052;-63
2021/08/23 09:58:15;;;;;;;2.58;1.50;;;;;;;22.11;37.61;99386.38;4748693;30;20052;-63
2021/08/23 10:00:42;;;;;;;1.83;1.40;;;;;;;21.89;38.28;99392.69;4732772;30;20511;-65
2021/08/23 10:03:22;;;;;;;2.58;1.52;;;;;;;21.79;37.69;99395.63;4733295;30;20050;-65
2021/08/23 10:05:48;;;;;;;3.80;1.30;;;;;;;21.68;37.53;99389.75;4749804;30;20098;-64
2021/08/23 10:08:24;;;;;;;3.05;1.33;;;;;;;21.54;38.05;99389.03;4744973;30;20064;-64
2021/08/23 10:10:51;;;;;;;5.75;1.73;;;;;;;21.40;37.89;99401.81;4745789;30;20056;-64
2021/08/23 10:13:17;;;;;;;5.00;1.13;;;;;;;21.36;38.85;99390.03;4748452;30;20083;-64
2021/08/23 10:15:43;;;;;;;1.25;1.10;;;;;;;21.23;38.69;99402.47;4746482;30;20397;-64
2021/08/23 10:18:09;;;;;;;3.85;1.20;;;;;;;21.02;39.43;99397.56;4717040;30;20101;-64
2021/08/23 10:20:36;;;;;;;4.53;1.25;;;;;;;20.96;40.11;99395.31;4743784;30;20052;-65
2021/08/23 10:23:03;;;;;;;2.70;1.30;;;;;;;20.82;41.47;99398.03;4748501;30;20055;-65
2021/08/23 10:25:30;;;;;;;2.45;1.40;;;;;;;20.79;41.30;99401.34;4731533;30;20079;-64
2021/08/23 10:28:12;;;;;;;1.77;1.20;;;;;;;20.82;41.89;99396.16;4747301;30;20423;-64
2021/08/23 10:30:38;;;;;;;4.57;1.30;;;;;;;20.87;40.75;99392.53;4746325;30;20209;-65
2021/08/23 10:33:16;;;;;;;2.00;1.17;;;;;;;20.92;40.22;99384.34;4746504;30;20044;-65
2021/08/23 10:35:53;;;;;;;1.33;1.05;;;;;;;21.07;39.87;99391.28;4745422;30;20152;-66
2021/08/23 10:38:24;;;;;;;2.60;1.30;;;;;;;21.30;38.77;99387.47;4747326;30;20567;-65
2021/08/23 10:41:06;;;;;;;4.85;1.17;;;;;;;21.49;38.21;99389.97;4745749;30;20052;-66
2021/08/23 10:43:45;;;;;;;2.53;1.40;;;;;;;21.58;38.77;99381.13;4748048;30;20191;-65
2021/08/23 10:46:30;;;;;;;2.35;1.50;;;;;;;21.70;38.82;99395.59;4746589;30;20143;-65
2021/08/23 10:48:58;;;;;;;2.55;1.10;;;;;;;21.78;38.04;99402.16;4747622;30;20060;-65
2021/08/23 10:51:33;;;;;;;2.97;1.20;;;;;;;22.00;37.33;99401.28;4744990;30;20060;-66
2021/08/23 10:54:00;;;;;;;5.80;1.60;;;;;;;22.14;37.48;99379.56;4729149;30;20048;-66
2021/08/23 10:56:46;;;;;;;2.42;1.30;;;;;;;22.33;38.04;99399.03;4748196;30;20044;-65
2021/08/23 10:59:16;;;;;;;2.20;1.33;;;;;;;22.36;37.18;99390.28;4728988;30;20371;-64
2021/08/23 11:02:11;;;;;;;;;;;;;;;22.37;37.04;99397.28;4729812;30;20052;-65
2021/08/23 11:04:40;;;;;;;11.55;1.95;;;;;;;22.04;37.74;99396.06;4728931;30;19938;-66
2021/08/23 11:07:08;;;;;;;2.67;1.20;;;;;;;21.71;38.58;99393.72;4713049;30;20083;-66
2021/08/23 11:09:37;;;;;;;5.57;1.10;;;;;;;21.67;39.39;99392.75;4729873;30;20060;-66
2021/08/23 11:12:14;;;;;;;5.03;1.00;;;;;;;21.74;39.63;99393.09;4729593;30;20504;-65
2021/08/23 11:14:47;;;;;;;2.25;1.38;;;;;;;21.69;39.75;99395.94;4713513;30;20118;-66
2021/08/23 11:17:13;;;;;;;1.98;1.20;;;;;;;21.66;39.93;99399.25;4713425;30;20114;-65
2021/08/23 11:19:39;;;;;;;3.58;1.38;;;;;;;21.82;40.03;99381.53;4729086;30;20052;-66
2021/08/23 11:22:05;;;;;;;4.35;1.50;;;;;;;22.13;39.64;99386.88;4727901;30;20053;-66
2021/08/23 11:24:33;;;;;;;1.92;1.17;;;;;;;22.32;39.19;99391.22;4729108;30;20052;-65
2021/08/23 11:27:02;;;;;;;2.10;1.27;;;;;;;22.33;39.05;99393.63;4730346;30;20064;-66
2021/08/23 11:29:29;;;;;;;3.80;1.20;;;;;;;22.31;39.45;99387.72;4726869;30;20121;-65
2021/08/23 11:32:03;;;;;;;2.40;1.00;;;;;;;22.23;38.39;99389.28;4726395;30;20420;-64
2021/08/23 11:34:29;;;;;;;1.50;1.15;;;;;;;22.21;38.74;99391.53;4711358;30;20505;-65